Terminal Aerodrome Forecast
Issued by NWS Binghamton, NY

Current Version | Previous Version | Text Only | Print | Product List | Glossary On
Versions: 1 2 3 4 5 6 7 8 9 10 11 12 13 14 15 16
000
FTUS41 KBGM 231733
TAFBGM
TAF
KBGM 231733Z 2318/2418 31014G22KT P6SM SCT060
     FM232300 32008KT P6SM SKC
     FM240400 33004KT P6SM SKC=

USA.gov is the U.S. government's official web portal to all federal, state and local government web resources and services.